sensor_id;sensor_type;location;lat;lon;timestamp;temperature;humidity
37310;DHT22;23195;47.744;7.358;2023-04-07T06:02:33;7.90;99.90
37310;DHT22;23195;47.744;7.358;2023-04-07T06:05:05;7.80;99.90
37310;DHT22;23195;47.744;7.358;2023-04-07T06:07:35;7.90;99.90
37310;DHT22;23195;47.744;7.358;2023-04-07T06:10:00;7.80;99.90
37310;DHT22;23195;47.744;7.358;2023-04-07T06:12:28;7.80;99.90
37310;DHT22;23195;47.744;7.358;2023-04-07T06:14:55;7.80;99.90
37310;DHT22;23195;47.744;7.358;2023-04-07T06:17:26;7.90;99.90
37310;DHT22;23195;47.744;7.358;2023-04-07T06:20:02;7.90;99.90
37310;DHT22;23195;47.744;7.358;2023-04-07T06:22:33;6.80;99.90
37310;DHT22;23195;47.744;7.358;2023-04-07T06:25:01;8.40;99.90
37310;DHT22;23195;47.744;7.358;2023-04-07T06:27:30;8.40;99.90
37310;DHT22;23195;47.744;7.358;2023-04-07T06:29:57;8.00;99.90
37310;DHT22;23195;47.744;7.358;2023-04-07T06:32:36;8.00;99.90
37310;DHT22;23195;47.744;7.358;2023-04-07T06:35:25;8.10;99.90
37310;DHT22;23195;47.744;7.358;2023-04-07T06:38:12;8.00;99.90
37310;DHT22;23195;47.744;7.358;2023-04-07T06:40:41;8.00;99.90
37310;DHT22;23195;47.744;7.358;2023-04-07T06:43:22;7.20;99.90
37310;DHT22;23195;47.744;7.358;2023-04-07T06:45:55;8.00;99.90
37310;DHT22;23195;47.744;7.358;2023-04-07T06:48:24;8.00;99.90
37310;DHT22;23195;47.744;7.358;2023-04-07T06:50:53;8.00;99.90
37310;DHT22;23195;47.744;7.358;2023-04-07T06:53:22;8.00;99.90
37310;DHT22;23195;47.744;7.358;2023-04-07T06:56:01;6.60;99.90
37310;DHT22;23195;47.744;7.358;2023-04-07T06:58:27;7.90;99.90
37310;DHT22;23195;47.744;7.358;2023-04-07T07:00:53;7.80;99.90
37310;DHT22;23195;47.744;7.358;2023-04-07T07:03:21;7.70;99.90
37310;DHT22;23195;47.744;7.358;2023-04-07T07:05:50;7.70;99.90
37310;DHT22;23195;47.744;7.358;2023-04-07T07:08:17;7.60;99.90
37310;DHT22;23195;47.744;7.358;2023-04-07T07:10:43;7.60;99.90
37310;DHT22;23195;47.744;7.358;2023-04-07T07:13:15;7.40;99.90
37310;DHT22;23195;47.744;7.358;2023-04-07T07:15:49;8.10;99.90
37310;DHT22;23195;47.744;7.358;2023-04-07T07:18:32;7.50;99.90
37310;DHT22;23195;47.744;7.358;2023-04-07T07:21:05;7.40;99.90
37310;DHT22;23195;47.744;7.358;2023-04-07T07:23:34;7.40;99.90
37310;DHT22;23195;47.744;7.358;2023-04-07T07:26:03;6.80;99.90
37310;DHT22;23195;47.744;7.358;2023-04-07T07:28:32;7.30;99.90
37310;DHT22;23195;47.744;7.358;2023-04-07T07:31:11;7.20;99.90
37310;DHT22;23195;47.744;7.358;2023-04-07T07:33:48;7.20;99.90
37310;DHT22;23195;47.744;7.358;2023-04-07T07:36:16;7.10;99.90
37310;DHT22;23195;47.744;7.358;2023-04-07T07:38:42;7.00;99.90
37310;DHT22;23195;47.744;7.358;2023-04-07T07:41:08;6.90;99.90
37310;DHT22;23195;47.744;7.358;2023-04-07T07:43:34;6.90;99.90
37310;DHT22;23195;47.744;7.358;2023-04-07T07:46:00;6.80;99.90
37310;DHT22;23195;47.744;7.358;2023-04-07T07:48:25;6.80;99.90
37310;DHT22;23195;47.744;7.358;2023-04-07T07:50:51;6.90;99.90
37310;DHT22;23195;47.744;7.358;2023-04-07T07:53:18;6.70;99.90
37310;DHT22;23195;47.744;7.358;2023-04-07T07:55:45;6.70;99.90
37310;DHT22;23195;47.744;7.358;2023-04-07T07:58:11;6.60;99.90
37310;DHT22;23195;47.744;7.358;2023-04-07T08:00:40;6.60;99.90
37310;DHT22;23195;47.744;7.358;2023-04-07T08:03:08;6.60;99.90
37310;DHT22;23195;47.744;7.358;2023-04-07T08:05:34;6.10;99.90
37310;DHT22;23195;47.744;7.358;2023-04-07T08:08:05;6.50;99.90
37310;DHT22;23195;47.744;7.358;2023-04-07T08:10:31;6.40;99.90
37310;DHT22;23195;47.744;7.358;2023-04-07T08:12:57;6.40;99.90
37310;DHT22;23195;47.744;7.358;2023-04-07T08:15:26;6.40;99.90
37310;DHT22;23195;47.744;7.358;2023-04-07T08:17:55;6.40;99.90
37310;DHT22;23195;47.744;7.358;2023-04-07T08:20:21;6.40;99.90
37310;DHT22;23195;47.744;7.358;2023-04-07T08:22:47;6.00;99.90
37310;DHT22;23195;47.744;7.358;2023-04-07T08:25:13;6.30;99.90
37310;DHT22;23195;47.744;7.358;2023-04-07T08:27:39;6.30;99.90
37310;DHT22;23195;47.744;7.358;2023-04-07T08:30:05;6.30;99.90
37310;DHT22;23195;47.744;7.358;2023-04-07T08:32:42;6.30;99.90
37310;DHT22;23195;47.744;7.358;2023-04-07T08:35:09;6.30;99.90
37310;DHT22;23195;47.744;7.358;2023-04-07T08:37:37;6.30;99.90
37310;DHT22;23195;47.744;7.358;2023-04-07T08:40:11;6.30;99.90
37310;DHT22;23195;47.744;7.358;2023-04-07T08:42:41;6.30;99.90
37310;DHT22;23195;47.744;7.358;2023-04-07T08:45:08;6.30;99.90
37310;DHT22;23195;47.744;7.358;2023-04-07T08:47:39;6.30;99.90
37310;DHT22;23195;47.744;7.358;2023-04-07T08:50:07;6.50;99.90
37310;DHT22;23195;47.744;7.358;2023-04-07T08:55:14;6.50;99.90
37310;DHT22;23195;47.744;7.358;2023-04-07T08:57:41;6.50;99.90
37310;DHT22;23195;47.744;7.358;2023-04-07T09:00:11;6.60;99.90
37310;DHT22;23195;47.744;7.358;2023-04-07T09:02:42;6.20;99.90
37310;DHT22;23195;47.744;7.358;2023-04-07T09:05:10;6.80;99.90
37310;DHT22;23195;47.744;7.358;2023-04-07T09:07:42;6.90;99.90
37310;DHT22;23195;47.744;7.358;2023-04-07T09:10:08;6.80;99.90
37310;DHT22;23195;47.744;7.358;2023-04-07T09:12:35;7.60;99.90
37310;DHT22;23195;47.744;7.358;2023-04-07T09:15:05;6.90;99.90
37310;DHT22;23195;47.744;7.358;2023-04-07T09:17:31;6.80;99.90
37310;DHT22;23195;47.744;7.358;2023-04-07T09:19:58;7.00;99.90
37310;DHT22;23195;47.744;7.358;2023-04-07T09:22:42;7.10;99.90
37310;DHT22;23195;47.744;7.358;2023-04-07T09:25:18;7.20;99.90
37310;DHT22;23195;47.744;7.358;2023-04-07T09:28:01;7.30;99.90
37310;DHT22;23195;47.744;7.358;2023-04-07T09:30:28;7.20;99.90
37310;DHT22;23195;47.744;7.358;2023-04-07T09:32:55;7.30;99.90
37310;DHT22;23195;47.744;7.358;2023-04-07T09:35:21;7.40;99.90
37310;DHT22;23195;47.744;7.358;2023-04-07T09:38:14;7.40;99.90
37310;DHT22;23195;47.744;7.358;2023-04-07T09:40:39;7.30;99.90
37310;DHT22;23195;47.744;7.358;2023-04-07T09:43:05;7.40;99.90
37310;DHT22;23195;47.744;7.358;2023-04-07T09:45:39;7.30;99.90
37310;DHT22;23195;47.744;7.358;2023-04-07T09:48:06;7.20;99.90
37310;DHT22;23195;47.744;7.358;2023-04-07T09:50:33;7.20;99.90
37310;DHT22;23195;47.744;7.358;2023-04-07T09:52:59;7.00;99.90
37310;DHT22;23195;47.744;7.358;2023-04-07T09:55:28;6.80;99.90
37310;DHT22;23195;47.744;7.358;2023-04-07T09:57:54;6.90;99.90
37310;DHT22;23195;47.744;7.358;2023-04-07T10:00:24;7.00;99.90
37310;DHT22;23195;47.744;7.358;2023-04-07T10:02:50;7.10;99.90
37310;DHT22;23195;47.744;7.358;2023-04-07T10:05:17;7.20;99.90
37310;DHT22;23195;47.744;7.358;2023-04-07T10:08:01;7.20;99.90
37310;DHT22;23195;47.744;7.358;2023-04-07T10:13:42;7.20;99.90
37310;DHT22;23195;47.744;7.358;2023-04-07T10:16:08;7.40;99.90
37310;DHT22;23195;47.744;7.358;2023-04-07T10:18:44;7.40;99.90
37310;DHT22;23195;47.744;7.358;2023-04-07T10:21:15;7.50;99.90
37310;DHT22;23195;47.744;7.358;2023-04-07T10:24:02;7.50;99.90
37310;DHT22;23195;47.744;7.358;2023-04-07T10:26:32;6.80;99.90
37310;DHT22;23195;47.744;7.358;2023-04-07T10:29:03;7.50;99.90
37310;DHT22;23195;47.744;7.358;2023-04-07T10:31:31;7.60;99.90
37310;DHT22;23195;47.744;7.358;2023-04-07T10:34:01;7.70;99.90
37310;DHT22;23195;47.744;7.358;2023-04-07T10:36:28;8.10;99.90
37310;DHT22;23195;47.744;7.358;2023-04-07T10:47:06;8.90;99.90
37310;DHT22;23195;47.744;7.358;2023-04-07T10:49:34;8.90;99.90
37310;DHT22;23195;47.744;7.358;2023-04-07T10:54:39;9.00;99.90
37310;DHT22;23195;47.744;7.358;2023-04-07T11:02:31;8.90;99.90
37310;DHT22;23195;47.744;7.358;2023-04-07T11:04:57;8.80;99.90
37310;DHT22;23195;47.744;7.358;2023-04-07T11:08:03;8.70;99.90
37310;DHT22;23195;47.744;7.358;2023-04-07T11:10:34;8.70;99.90
37310;DHT22;23195;47.744;7.358;2023-04-07T11:16:06;8.70;99.90
37310;DHT22;23195;47.744;7.358;2023-04-07T11:18:35;8.60;99.90
37310;DHT22;23195;47.744;7.358;2023-04-07T11:21:05;8.50;99.90
37310;DHT22;23195;47.744;7.358;2023-04-07T11:23:45;8.60;99.90
37310;DHT22;23195;47.744;7.358;2023-04-07T11:26:15;7.40;99.90
37310;DHT22;23195;47.744;7.358;2023-04-07T11:28:48;8.60;99.90
37310;DHT22;23195;47.744;7.358;2023-04-07T11:31:32;8.60;99.90
37310;DHT22;23195;47.744;7.358;2023-04-07T11:34:04;8.90;99.90
37310;DHT22;23195;47.744;7.358;2023-04-07T11:36:31;9.00;99.90
37310;DHT22;23195;47.744;7.358;2023-04-07T11:39:01;9.60;99.90
37310;DHT22;23195;47.744;7.358;2023-04-07T11:41:29;8.90;99.90
37310;DHT22;23195;47.744;7.358;2023-04-07T11:44:09;9.00;99.90
37310;DHT22;23195;47.744;7.358;2023-04-07T11:46:36;8.80;99.90
37310;DHT22;23195;47.744;7.358;2023-04-07T11:49:31;8.70;99.90
37310;DHT22;23195;47.744;7.358;2023-04-07T11:52:05;8.70;99.90
37310;DHT22;23195;47.744;7.358;2023-04-07T11:54:44;8.70;99.90
37310;DHT22;23195;47.744;7.358;2023-04-07T11:57:11;8.70;99.90
37310;DHT22;23195;47.744;7.358;2023-04-07T11:59:40;8.70;99.90
37310;DHT22;23195;47.744;7.358;2023-04-07T12:02:06;8.40;99.90
37310;DHT22;23195;47.744;7.358;2023-04-07T12:04:41;8.80;99.90
37310;DHT22;23195;47.744;7.358;2023-04-07T12:07:20;8.70;99.90
37310;DHT22;23195;47.744;7.358;2023-04-07T12:09:46;8.60;99.90
37310;DHT22;23195;47.744;7.358;2023-04-07T12:12:12;8.70;99.90
37310;DHT22;23195;47.744;7.358;2023-04-07T12:14:38;8.60;99.90
37310;DHT22;23195;47.744;7.358;2023-04-07T12:17:04;8.60;99.90
37310;DHT22;23195;47.744;7.358;2023-04-07T12:19:32;8.30;99.90
37310;DHT22;23195;47.744;7.358;2023-04-07T12:21:59;8.60;99.90
37310;DHT22;23195;47.744;7.358;2023-04-07T12:24:25;8.40;99.90
37310;DHT22;23195;47.744;7.358;2023-04-07T12:26:51;8.60;99.90
37310;DHT22;23195;47.744;7.358;2023-04-07T12:29:17;8.60;99.90
37310;DHT22;23195;47.744;7.358;2023-04-07T12:31:44;8.50;99.90
37310;DHT22;23195;47.744;7.358;2023-04-07T12:34:10;8.70;99.90
37310;DHT22;23195;47.744;7.358;2023-04-07T12:36:36;8.80;99.90
37310;DHT22;23195;47.744;7.358;2023-04-07T12:39:02;8.90;99.90
37310;DHT22;23195;47.744;7.358;2023-04-07T12:41:28;9.40;99.90
37310;DHT22;23195;47.744;7.358;2023-04-07T12:43:54;8.60;99.90
37310;DHT22;23195;47.744;7.358;2023-04-07T12:46:19;9.20;99.90
37310;DHT22;23195;47.744;7.358;2023-04-07T12:48:46;9.30;99.90
37310;DHT22;23195;47.744;7.358;2023-04-07T12:51:14;8.40;99.90
37310;DHT22;23195;47.744;7.358;2023-04-07T12:53:43;9.40;99.90
37310;DHT22;23195;47.744;7.358;2023-04-07T12:56:09;9.30;99.90
37310;DHT22;23195;47.744;7.358;2023-04-07T12:58:35;9.40;99.90
37310;DHT22;23195;47.744;7.358;2023-04-07T13:01:01;7.60;99.90
37310;DHT22;23195;47.744;7.358;2023-04-07T13:03:27;9.70;99.90
37310;DHT22;23195;47.744;7.358;2023-04-07T13:05:55;9.30;99.90
37310;DHT22;23195;47.744;7.358;2023-04-07T13:08:26;9.10;99.90
37310;DHT22;23195;47.744;7.358;2023-04-07T13:10:52;9.20;99.90
37310;DHT22;23195;47.744;7.358;2023-04-07T13:13:18;9.40;99.90
37310;DHT22;23195;47.744;7.358;2023-04-07T13:15:44;9.30;99.90
37310;DHT22;23195;47.744;7.358;2023-04-07T13:18:13;9.30;99.90
37310;DHT22;23195;47.744;7.358;2023-04-07T13:20:39;9.40;99.90
37310;DHT22;23195;47.744;7.358;2023-04-07T13:23:05;9.50;99.90
37310;DHT22;23195;47.744;7.358;2023-04-07T13:25:31;9.40;99.90
37310;DHT22;23195;47.744;7.358;2023-04-07T13:27:57;9.20;99.90
37310;DHT22;23195;47.744;7.358;2023-04-07T13:30:24;9.30;99.90
37310;DHT22;23195;47.744;7.358;2023-04-07T13:32:50;9.30;99.90
37310;DHT22;23195;47.744;7.358;2023-04-07T13:35:16;9.40;99.90
37310;DHT22;23195;47.744;7.358;2023-04-07T13:37:43;9.50;99.90
37310;DHT22;23195;47.744;7.358;2023-04-07T13:40:11;9.60;99.90
37310;DHT22;23195;47.744;7.358;2023-04-07T13:42:38;9.90;99.90
37310;DHT22;23195;47.744;7.358;2023-04-07T13:45:04;10.00;99.90
37310;DHT22;23195;47.744;7.358;2023-04-07T13:47:33;10.10;99.90
37310;DHT22;23195;47.744;7.358;2023-04-07T13:50:00;10.40;99.90
37310;DHT22;23195;47.744;7.358;2023-04-07T13:52:26;10.60;99.90
37310;DHT22;23195;47.744;7.358;2023-04-07T13:54:52;10.70;99.90
37310;DHT22;23195;47.744;7.358;2023-04-07T13:57:18;9.30;99.90
37310;DHT22;23195;47.744;7.358;2023-04-07T13:59:50;10.60;99.90
37310;DHT22;23195;47.744;7.358;2023-04-07T14:02:19;10.40;99.90
37310;DHT22;23195;47.744;7.358;2023-04-07T14:04:48;10.40;99.90
37310;DHT22;23195;47.744;7.358;2023-04-07T14:07:14;10.40;99.90
37310;DHT22;23195;47.744;7.358;2023-04-07T14:09:42;10.60;99.90
37310;DHT22;23195;47.744;7.358;2023-04-07T14:12:08;10.80;99.90
37310;DHT22;23195;47.744;7.358;2023-04-07T14:14:34;10.80;99.90
37310;DHT22;23195;47.744;7.358;2023-04-07T14:17:02;10.90;99.90
37310;DHT22;23195;47.744;7.358;2023-04-07T14:19:28;10.90;99.90
37310;DHT22;23195;47.744;7.358;2023-04-07T14:21:54;10.90;99.90
37310;DHT22;23195;47.744;7.358;2023-04-07T14:24:20;10.90;99.90
37310;DHT22;23195;47.744;7.358;2023-04-07T14:26:49;11.00;99.90
37310;DHT22;23195;47.744;7.358;2023-04-07T14:29:16;11.00;99.90
37310;DHT22;23195;47.744;7.358;2023-04-07T14:31:42;10.90;99.90
37310;DHT22;23195;47.744;7.358;2023-04-07T14:34:09;11.00;99.90
37310;DHT22;23195;47.744;7.358;2023-04-07T14:36:35;10.90;99.90
37310;DHT22;23195;47.744;7.358;2023-04-07T14:39:01;10.80;99.90
37310;DHT22;23195;47.744;7.358;2023-04-07T14:41:27;10.70;99.90
37310;DHT22;23195;47.744;7.358;2023-04-07T14:43:56;10.80;99.90
37310;DHT22;23195;47.744;7.358;2023-04-07T14:46:23;10.70;99.90
37310;DHT22;23195;47.744;7.358;2023-04-07T14:48:50;11.00;99.90
37310;DHT22;23195;47.744;7.358;2023-04-07T14:51:19;11.00;99.90
37310;DHT22;23195;47.744;7.358;2023-04-07T14:53:46;11.00;99.90
37310;DHT22;23195;47.744;7.358;2023-04-07T14:56:12;11.10;99.90
37310;DHT22;23195;47.744;7.358;2023-04-07T14:58:38;11.10;99.90
37310;DHT22;23195;47.744;7.358;2023-04-07T15:01:07;11.20;99.90
37310;DHT22;23195;47.744;7.358;2023-04-07T15:03:36;11.10;99.90
37310;DHT22;23195;47.744;7.358;2023-04-07T15:06:06;10.80;99.90
37310;DHT22;23195;47.744;7.358;2023-04-07T15:08:34;10.90;99.90
37310;DHT22;23195;47.744;7.358;2023-04-07T15:11:07;9.60;99.90
37310;DHT22;23195;47.744;7.358;2023-04-07T15:13:33;10.80;99.90
37310;DHT22;23195;47.744;7.358;2023-04-07T15:16:12;10.80;99.90
37310;DHT22;23195;47.744;7.358;2023-04-07T15:18:42;10.70;99.90
37310;DHT22;23195;47.744;7.358;2023-04-07T15:21:09;10.60;99.90
37310;DHT22;23195;47.744;7.358;2023-04-07T15:23:38;10.60;99.90
37310;DHT22;23195;47.744;7.358;2023-04-07T15:26:06;10.60;99.90
37310;DHT22;23195;47.744;7.358;2023-04-07T15:28:33;10.70;99.90
37310;DHT22;23195;47.744;7.358;2023-04-07T15:30:59;10.60;99.90
37310;DHT22;23195;47.744;7.358;2023-04-07T15:33:25;10.50;99.90
37310;DHT22;23195;47.744;7.358;2023-04-07T15:35:51;10.60;99.90
37310;DHT22;23195;47.744;7.358;2023-04-07T15:38:17;10.60;99.90
37310;DHT22;23195;47.744;7.358;2023-04-07T15:40:43;10.50;99.90
37310;DHT22;23195;47.744;7.358;2023-04-07T15:43:09;10.40;99.90
37310;DHT22;23195;47.744;7.358;2023-04-07T15:45:46;10.40;99.90
37310;DHT22;23195;47.744;7.358;2023-04-07T15:48:12;10.50;99.90
37310;DHT22;23195;47.744;7.358;2023-04-07T15:50:41;10.40;99.90
37310;DHT22;23195;47.744;7.358;2023-04-07T15:53:09;10.40;99.90
37310;DHT22;23195;47.744;7.358;2023-04-07T15:55:35;10.50;99.90
37310;DHT22;23195;47.744;7.358;2023-04-07T15:58:05;10.50;99.90
37310;DHT22;23195;47.744;7.358;2023-04-07T16:00:34;10.90;99.90
37310;DHT22;23195;47.744;7.358;2023-04-07T16:03:04;10.50;99.90
37310;DHT22;23195;47.744;7.358;2023-04-07T16:05:30;10.60;99.90
37310;DHT22;23195;47.744;7.358;2023-04-07T16:07:56;10.50;99.90
37310;DHT22;23195;47.744;7.358;2023-04-07T16:10:23;10.30;99.90
37310;DHT22;23195;47.744;7.358;2023-04-07T16:12:49;10.40;99.90
37310;DHT22;23195;47.744;7.358;2023-04-07T16:15:15;10.30;99.90
37310;DHT22;23195;47.744;7.358;2023-04-07T16:17:42;10.30;99.90
37310;DHT22;23195;47.744;7.358;2023-04-07T16:20:43;10.30;99.90
37310;DHT22;23195;47.744;7.358;2023-04-07T16:23:12;10.20;99.90
37310;DHT22;23195;47.744;7.358;2023-04-07T16:25:38;10.10;99.90
37310;DHT22;23195;47.744;7.358;2023-04-07T16:28:06;10.10;99.90
37310;DHT22;23195;47.744;7.358;2023-04-07T16:30:32;10.00;99.90
37310;DHT22;23195;47.744;7.358;2023-04-07T16:32:58;10.00;99.90
37310;DHT22;23195;47.744;7.358;2023-04-07T16:35:25;9.90;99.90
37310;DHT22;23195;47.744;7.358;2023-04-07T16:37:54;9.80;99.90
37310;DHT22;23195;47.744;7.358;2023-04-07T16:40:31;9.80;99.90
37310;DHT22;23195;47.744;7.358;2023-04-07T16:42:57;9.60;99.90
37310;DHT22;23195;47.744;7.358;2023-04-07T16:45:23;9.40;99.90
37310;DHT22;23195;47.744;7.358;2023-04-07T16:47:48;9.70;99.90
37310;DHT22;23195;47.744;7.358;2023-04-07T16:50:15;9.60;99.90
37310;DHT22;23195;47.744;7.358;2023-04-07T16:52:43;9.60;99.90
37310;DHT22;23195;47.744;7.358;2023-04-07T16:55:11;9.50;99.90
37310;DHT22;23195;47.744;7.358;2023-04-07T16:57:42;9.50;99.90
37310;DHT22;23195;47.744;7.358;2023-04-07T17:00:14;9.60;99.90
37310;DHT22;23195;47.744;7.358;2023-04-07T17:02:43;9.50;99.90
37310;DHT22;23195;47.744;7.358;2023-04-07T17:05:09;9.40;99.90
37310;DHT22;23195;47.744;7.358;2023-04-07T17:07:35;9.30;99.90
37310;DHT22;23195;47.744;7.358;2023-04-07T17:10:01;8.50;99.90
37310;DHT22;23195;47.744;7.358;2023-04-07T17:12:26;9.30;99.90
37310;DHT22;23195;47.744;7.358;2023-04-07T17:14:52;9.10;99.90
37310;DHT22;23195;47.744;7.358;2023-04-07T17:17:18;9.20;99.90
37310;DHT22;23195;47.744;7.358;2023-04-07T17:19:44;9.20;99.90
37310;DHT22;23195;47.744;7.358;2023-04-07T17:22:16;9.20;99.90
37310;DHT22;23195;47.744;7.358;2023-04-07T17:24:42;9.10;99.90
37310;DHT22;23195;47.744;7.358;2023-04-07T17:27:08;9.10;99.90
37310;DHT22;23195;47.744;7.358;2023-04-07T17:29:33;9.00;99.90
37310;DHT22;23195;47.744;7.358;2023-04-07T17:31:59;9.00;99.90
37310;DHT22;23195;47.744;7.358;2023-04-07T17:34:25;9.00;99.90
37310;DHT22;23195;47.744;7.358;2023-04-07T17:36:51;9.00;99.90
37310;DHT22;23195;47.744;7.358;2023-04-07T17:39:17;8.80;99.90
37310;DHT22;23195;47.744;7.358;2023-04-07T17:41:46;8.70;99.90
37310;DHT22;23195;47.744;7.358;2023-04-07T17:44:12;8.70;99.90
37310;DHT22;23195;47.744;7.358;2023-04-07T17:46:37;8.60;99.90
37310;DHT22;23195;47.744;7.358;2023-04-07T17:49:03;8.70;99.90
37310;DHT22;23195;47.744;7.358;2023-04-07T17:51:29;8.70;99.90
37310;DHT22;23195;47.744;7.358;2023-04-07T17:53:55;9.50;99.90
37310;DHT22;23195;47.744;7.358;2023-04-07T17:56:21;8.60;99.90
37310;DHT22;23195;47.744;7.358;2023-04-07T17:58:55;8.50;99.90
37310;DHT22;23195;47.744;7.358;2023-04-07T18:01:21;8.50;99.90
37310;DHT22;23195;47.744;7.358;2023-04-07T18:07:42;7.90;99.90
37310;DHT22;23195;47.744;7.358;2023-04-07T18:10:09;8.60;99.90
37310;DHT22;23195;47.744;7.358;2023-04-07T18:12:34;8.40;99.90
37310;DHT22;23195;47.744;7.358;2023-04-07T18:15:09;8.40;99.90
37310;DHT22;23195;47.744;7.358;2023-04-07T18:17:38;8.40;99.90
37310;DHT22;23195;47.744;7.358;2023-04-07T18:20:08;8.30;99.90
37310;DHT22;23195;47.744;7.358;2023-04-07T18:22:37;8.30;99.90
37310;DHT22;23195;47.744;7.358;2023-04-07T18:25:05;8.20;99.90
37310;DHT22;23195;47.744;7.358;2023-04-07T18:27:37;8.60;99.90
37310;DHT22;23195;47.744;7.358;2023-04-07T18:30:03;8.20;99.90
37310;DHT22;23195;47.744;7.358;2023-04-07T18:32:32;8.00;99.90
37310;DHT22;23195;47.744;7.358;2023-04-07T18:34:58;8.00;99.90
37310;DHT22;23195;47.744;7.358;2023-04-07T18:37:27;7.90;99.90
37310;DHT22;23195;47.744;7.358;2023-04-07T18:39:57;7.80;99.90
37310;DHT22;23195;47.744;7.358;2023-04-07T18:42:22;7.70;99.90
37310;DHT22;23195;47.744;7.358;2023-04-07T18:44:48;7.10;99.90
37310;DHT22;23195;47.744;7.358;2023-04-07T18:47:14;7.70;99.90
37310;DHT22;23195;47.744;7.358;2023-04-07T18:49:40;7.50;99.90
37310;DHT22;23195;47.744;7.358;2023-04-07T18:52:07;7.50;99.90
37310;DHT22;23195;47.744;7.358;2023-04-07T18:54:37;7.60;99.90
37310;DHT22;23195;47.744;7.358;2023-04-07T18:57:05;7.70;99.90
37310;DHT22;23195;47.744;7.358;2023-04-07T18:59:31;7.60;99.90
37310;DHT22;23195;47.744;7.358;2023-04-07T19:01:57;7.70;99.90
37310;DHT22;23195;47.744;7.358;2023-04-07T19:04:22;7.60;99.90
37310;DHT22;23195;47.744;7.358;2023-04-07T19:06:51;7.60;99.90
37310;DHT22;23195;47.744;7.358;2023-04-07T19:09:17;7.50;99.90
37310;DHT22;23195;47.744;7.358;2023-04-07T19:11:43;7.50;99.90
37310;DHT22;23195;47.744;7.358;2023-04-07T19:14:09;7.40;99.90
37310;DHT22;23195;47.744;7.358;2023-04-07T19:16:35;7.30;99.90
37310;DHT22;23195;47.744;7.358;2023-04-07T19:19:04;7.30;99.90
37310;DHT22;23195;47.744;7.358;2023-04-07T19:21:30;7.20;99.90
37310;DHT22;23195;47.744;7.358;2023-04-07T19:23:59;7.20;99.90
37310;DHT22;23195;47.744;7.358;2023-04-07T19:26:25;7.20;99.90
37310;DHT22;23195;47.744;7.358;2023-04-07T19:28:55;6.90;99.90
37310;DHT22;23195;47.744;7.358;2023-04-07T19:31:21;6.40;99.90
37310;DHT22;23195;47.744;7.358;2023-04-07T19:33:47;7.00;99.90
37310;DHT22;23195;47.744;7.358;2023-04-07T19:36:13;7.00;99.90
37310;DHT22;23195;47.744;7.358;2023-04-07T19:38:39;6.90;99.90
37310;DHT22;23195;47.744;7.358;2023-04-07T19:41:05;6.90;99.90
37310;DHT22;23195;47.744;7.358;2023-04-07T19:43:31;6.90;99.90
37310;DHT22;23195;47.744;7.358;2023-04-07T19:45:57;6.80;99.90
37310;DHT22;23195;47.744;7.358;2023-04-07T19:48:31;5.90;99.90
37310;DHT22;23195;47.744;7.358;2023-04-07T19:50:57;6.70;99.90
37310;DHT22;23195;47.744;7.358;2023-04-07T19:53:25;6.70;99.90
37310;DHT22;23195;47.744;7.358;2023-04-07T19:55:55;6.60;99.90
37310;DHT22;23195;47.744;7.358;2023-04-07T19:58:21;6.60;99.90
37310;DHT22;23195;47.744;7.358;2023-04-07T20:00:48;6.60;99.90
37310;DHT22;23195;47.744;7.358;2023-04-07T20:03:17;6.50;99.90
37310;DHT22;23195;47.744;7.358;2023-04-07T20:05:43;6.50;99.90
37310;DHT22;23195;47.744;7.358;2023-04-07T20:08:10;6.40;99.90
37310;DHT22;23195;47.744;7.358;2023-04-07T20:10:36;6.40;99.90
37310;DHT22;23195;47.744;7.358;2023-04-07T20:13:01;6.30;99.90
37310;DHT22;23195;47.744;7.358;2023-04-07T20:15:30;6.40;99.90
37310;DHT22;23195;47.744;7.358;2023-04-07T20:17:56;6.40;99.90
37310;DHT22;23195;47.744;7.358;2023-04-07T20:20:22;6.30;99.90
37310;DHT22;23195;47.744;7.358;2023-04-07T20:22:48;6.20;99.90
37310;DHT22;23195;47.744;7.358;2023-04-07T20:25:14;6.20;99.90
37310;DHT22;23195;47.744;7.358;2023-04-07T20:27:40;6.20;99.90
37310;DHT22;23195;47.744;7.358;2023-04-07T20:30:06;6.30;99.90
37310;DHT22;23195;47.744;7.358;2023-04-07T20:32:33;6.20;99.90
37310;DHT22;23195;47.744;7.358;2023-04-07T20:35:01;6.20;99.90
37310;DHT22;23195;47.744;7.358;2023-04-07T20:37:27;5.90;99.90
37310;DHT22;23195;47.744;7.358;2023-04-07T20:39:53;6.20;99.90
37310;DHT22;23195;47.744;7.358;2023-04-07T20:42:20;5.20;99.90
37310;DHT22;23195;47.744;7.358;2023-04-07T20:44:49;5.30;99.90
37310;DHT22;23195;47.744;7.358;2023-04-07T20:47:17;6.00;99.90
37310;DHT22;23195;47.744;7.358;2023-04-07T20:49:43;6.00;99.90
37310;DHT22;23195;47.744;7.358;2023-04-07T20:52:09;6.00;99.90
37310;DHT22;23195;47.744;7.358;2023-04-07T20:54:38;5.90;99.90
37310;DHT22;23195;47.744;7.358;2023-04-07T20:57:06;6.00;99.90
37310;DHT22;23195;47.744;7.358;2023-04-07T20:59:32;5.90;99.90
37310;DHT22;23195;47.744;7.358;2023-04-07T21:01:57;5.80;99.90
37310;DHT22;23195;47.744;7.358;2023-04-07T21:04:23;5.90;99.90
37310;DHT22;23195;47.744;7.358;2023-04-07T21:06:49;5.90;99.90
37310;DHT22;23195;47.744;7.358;2023-04-07T21:09:15;5.90;99.90
37310;DHT22;23195;47.744;7.358;2023-04-07T21:11:41;5.80;99.90
37310;DHT22;23195;47.744;7.358;2023-04-07T21:14:07;5.80;99.90
37310;DHT22;23195;47.744;7.358;2023-04-07T21:16:40;4.80;99.90
37310;DHT22;23195;47.744;7.358;2023-04-07T21:19:09;5.70;99.90
37310;DHT22;23195;47.744;7.358;2023-04-07T21:21:35;5.60;99.90
37310;DHT22;23195;47.744;7.358;2023-04-07T21:24:04;5.60;99.90
37310;DHT22;23195;47.744;7.358;2023-04-07T21:26:33;5.60;99.90
37310;DHT22;23195;47.744;7.358;2023-04-07T21:28:59;5.50;99.90
37310;DHT22;23195;47.744;7.358;2023-04-07T21:31:25;5.50;99.90
37310;DHT22;23195;47.744;7.358;2023-04-07T21:33:51;5.50;99.90
37310;DHT22;23195;47.744;7.358;2023-04-07T21:36:18;5.50;99.90
37310;DHT22;23195;47.744;7.358;2023-04-07T21:38:44;5.60;99.90
37310;DHT22;23195;47.744;7.358;2023-04-07T21:41:18;5.70;99.90
37310;DHT22;23195;47.744;7.358;2023-04-07T21:43:45;5.70;99.90
37310;DHT22;23195;47.744;7.358;2023-04-07T21:46:11;5.20;99.90
37310;DHT22;23195;47.744;7.358;2023-04-07T21:48:38;5.80;99.90
37310;DHT22;23195;47.744;7.358;2023-04-07T21:51:04;5.90;99.90
37310;DHT22;23195;47.744;7.358;2023-04-07T21:53:32;6.00;99.90
37310;DHT22;23195;47.744;7.358;2023-04-07T21:56:00;6.00;99.90
37310;DHT22;23195;47.744;7.358;2023-04-07T21:58:29;6.10;99.90
37310;DHT22;23195;47.744;7.358;2023-04-07T22:00:59;6.20;99.90
37310;DHT22;23195;47.744;7.358;2023-04-07T22:03:25;6.20;99.90
37310;DHT22;23195;47.744;7.358;2023-04-07T22:05:51;6.30;99.90
37310;DHT22;23195;47.744;7.358;2023-04-07T22:08:19;6.30;99.90
37310;DHT22;23195;47.744;7.358;2023-04-07T22:10:45;6.30;99.90
37310;DHT22;23195;47.744;7.358;2023-04-07T22:13:11;6.40;99.90
37310;DHT22;23195;47.744;7.358;2023-04-07T22:15:37;6.40;99.90
37310;DHT22;23195;47.744;7.358;2023-04-07T22:18:03;6.50;99.90
37310;DHT22;23195;47.744;7.358;2023-04-07T22:20:29;6.50;99.90